This is the latest recevied weather packets stored in our database for station/object OM7ABC-17. If no packets are shown the sender has not sent any weather packets the latest 1 day(s).
| Time | Temp. | Humidity | Pressure | Rain* | Wind** | Luminosity | Snow |
|---|---|---|---|---|---|---|---|
| 1778099177 | 25.56° C | 32% | 986.2 hPa | - | - | - | - |
| 1778098277 | 25.56° C | 32% | 986.2 hPa | - | - | - | - |
| 1778097377 | 25.56° C | 32% | 986.2 hPa | - | - | - | - |
| 1778096477 | 25.56° C | 32% | 986.1 hPa | - | - | - | - |
| 1778095577 | 25° C | 32% | 986.1 hPa | - | - | - | - |
| 1778094677 | 25° C | 32% | 985.9 hPa | - | - | - | - |
| 1778086576 | 26.11° C | 31% | 985 hPa | - | - | - | - |
| 1778085676 | 26.67° C | 30% | 985 hPa | - | - | - | - |
| 1778084776 | 26.67° C | 30% | 984.7 hPa | - | - | - | - |
| 1778083876 | 26.67° C | 30% | 984.8 hPa | - | - | - | - |
| 1778082076 | 26.67° C | 30% | 985 hPa | - | - | - | - |
| 1778081176 | 27.22° C | 31% | 985.1 hPa | - | - | - | - |
| 1778071275 | 26.11° C | 32% | 986.3 hPa | - | - | - | - |
| 1778070375 | 26.11° C | 32% | 986.5 hPa | - | - | - | - |
| 1778069475 | 25.56° C | 32% | 986.5 hPa | - | - | - | - |
| 1778068575 | 25.56° C | 32% | 986.7 hPa | - | - | - | - |
| 1778067675 | 25.56° C | 32% | 986.9 hPa | - | - | - | - |
| 1778066775 | 25.56° C | 32% | 986.8 hPa | - | - | - | - |
| 1778065875 | 25° C | 32% | 986.8 hPa | - | - | - | - |
| 1778060474 | 25° C | 32% | 987.4 hPa | - | - | - | - |
| 1778058674 | 25.56° C | 32% | 987.4 hPa | - | - | - | - |
| 1778057774 | 25.56° C | 32% | 987.3 hPa | - | - | - | - |
| 1778056874 | 25° C | 32% | 987.2 hPa | - | - | - | - |
| 1778055974 | 25° C | 32% | 987.4 hPa | - | - | - | - |
| 1778054179 | 25° C | 32% | 987.2 hPa | - | - | - | - |
* Rain since midnight (hover to see other rain measurements)
** Current wind speed in m/s (hover to see current wind gust speed)